sensor_id;sensor_type;location;lat;lon;timestamp;P1;durP1;ratioP1;P2;durP2;ratioP2
51987;SDS011;38003;52.012;4.346;2022-07-29T00:01:08;2.22;;;1.15;;
51987;SDS011;38003;52.012;4.346;2022-07-29T00:03:44;1.50;;;1.20;;
51987;SDS011;38003;52.012;4.346;2022-07-29T00:06:14;2.65;;;1.20;;
51987;SDS011;38003;52.012;4.346;2022-07-29T00:08:42;4.13;;;1.00;;
51987;SDS011;38003;52.012;4.346;2022-07-29T00:11:10;1.73;;;0.98;;
51987;SDS011;38003;52.012;4.346;2022-07-29T00:13:38;1.17;;;0.90;;
51987;SDS011;38003;52.012;4.346;2022-07-29T00:16:06;2.08;;;0.80;;
51987;SDS011;38003;52.012;4.346;2022-07-29T00:18:34;2.42;;;1.25;;
51987;SDS011;38003;52.012;4.346;2022-07-29T00:21:02;1.23;;;0.85;;
51987;SDS011;38003;52.012;4.346;2022-07-29T00:23:32;1.98;;;1.08;;
51987;SDS011;38003;52.012;4.346;2022-07-29T00:26:02;3.03;;;1.20;;
51987;SDS011;38003;52.012;4.346;2022-07-29T00:28:30;2.65;;;1.15;;
51987;SDS011;38003;52.012;4.346;2022-07-29T00:30:58;1.88;;;1.13;;
51987;SDS011;38003;52.012;4.346;2022-07-29T00:33:26;3.42;;;1.20;;
51987;SDS011;38003;52.012;4.346;2022-07-29T00:35:54;1.67;;;1.15;;
51987;SDS011;38003;52.012;4.346;2022-07-29T00:38:22;1.45;;;1.00;;
51987;SDS011;38003;52.012;4.346;2022-07-29T00:40:51;3.97;;;1.10;;
51987;SDS011;38003;52.012;4.346;2022-07-29T00:43:19;2.33;;;1.05;;
51987;SDS011;38003;52.012;4.346;2022-07-29T00:45:47;1.83;;;0.90;;
51987;SDS011;38003;52.012;4.346;2022-07-29T00:48:15;2.45;;;1.20;;
51987;SDS011;38003;52.012;4.346;2022-07-29T00:50:43;2.63;;;1.20;;
51987;SDS011;38003;52.012;4.346;2022-07-29T00:53:11;2.13;;;0.98;;
51987;SDS011;38003;52.012;4.346;2022-07-29T00:55:39;3.85;;;1.20;;
51987;SDS011;38003;52.012;4.346;2022-07-29T00:58:08;3.67;;;1.10;;
51987;SDS011;38003;52.012;4.346;2022-07-29T01:00:39;3.65;;;1.38;;
51987;SDS011;38003;52.012;4.346;2022-07-29T01:03:10;2.45;;;1.02;;
51987;SDS011;38003;52.012;4.346;2022-07-29T01:05:38;1.27;;;0.88;;
51987;SDS011;38003;52.012;4.346;2022-07-29T01:08:17;3.75;;;1.00;;
51987;SDS011;38003;52.012;4.346;2022-07-29T01:10:46;2.17;;;1.10;;
51987;SDS011;38003;52.012;4.346;2022-07-29T01:13:16;1.80;;;1.10;;
51987;SDS011;38003;52.012;4.346;2022-07-29T01:15:45;4.65;;;1.27;;
51987;SDS011;38003;52.012;4.346;2022-07-29T01:18:18;4.22;;;1.10;;
51987;SDS011;38003;52.012;4.346;2022-07-29T01:20:55;1.67;;;1.10;;
51987;SDS011;38003;52.012;4.346;2022-07-29T01:24:11;1.98;;;0.90;;
51987;SDS011;38003;52.012;4.346;2022-07-29T01:26:54;2.10;;;1.00;;
51987;SDS011;38003;52.012;4.346;2022-07-29T01:29:28;1.58;;;1.10;;
51987;SDS011;38003;52.012;4.346;2022-07-29T01:32:05;4.88;;;1.20;;
51987;SDS011;38003;52.012;4.346;2022-07-29T01:34:55;2.53;;;1.30;;
51987;SDS011;38003;52.012;4.346;2022-07-29T01:37:28;2.80;;;1.33;;
51987;SDS011;38003;52.012;4.346;2022-07-29T01:40:03;2.95;;;1.30;;
51987;SDS011;38003;52.012;4.346;2022-07-29T01:42:36;3.78;;;1.40;;
51987;SDS011;38003;52.012;4.346;2022-07-29T01:45:08;3.70;;;1.30;;
51987;SDS011;38003;52.012;4.346;2022-07-29T01:47:43;1.98;;;1.10;;
51987;SDS011;38003;52.012;4.346;2022-07-29T01:50:17;2.38;;;1.58;;
51987;SDS011;38003;52.012;4.346;2022-07-29T01:52:47;4.03;;;1.33;;
51987;SDS011;38003;52.012;4.346;2022-07-29T01:55:22;4.07;;;1.27;;
51987;SDS011;38003;52.012;4.346;2022-07-29T01:57:54;3.23;;;1.33;;
51987;SDS011;38003;52.012;4.346;2022-07-29T02:00:26;2.78;;;1.15;;
51987;SDS011;38003;52.012;4.346;2022-07-29T02:02:57;5.10;;;1.30;;
51987;SDS011;38003;52.012;4.346;2022-07-29T02:05:29;2.20;;;1.27;;
51987;SDS011;38003;52.012;4.346;2022-07-29T02:07:59;2.97;;;1.13;;
51987;SDS011;38003;52.012;4.346;2022-07-29T02:10:29;2.70;;;1.40;;
51987;SDS011;38003;52.012;4.346;2022-07-29T02:12:59;2.92;;;1.35;;
51987;SDS011;38003;52.012;4.346;2022-07-29T02:15:32;3.15;;;1.10;;
51987;SDS011;38003;52.012;4.346;2022-07-29T02:18:02;2.58;;;0.95;;
51987;SDS011;38003;52.012;4.346;2022-07-29T02:20:34;3.27;;;1.07;;
51987;SDS011;38003;52.012;4.346;2022-07-29T02:23:04;2.67;;;1.40;;
51987;SDS011;38003;52.012;4.346;2022-07-29T02:25:36;2.63;;;1.20;;
51987;SDS011;38003;52.012;4.346;2022-07-29T02:28:05;2.33;;;1.15;;
51987;SDS011;38003;52.012;4.346;2022-07-29T02:30:37;2.70;;;1.10;;
51987;SDS011;38003;52.012;4.346;2022-07-29T02:33:09;2.22;;;1.50;;
51987;SDS011;38003;52.012;4.346;2022-07-29T02:35:40;3.00;;;1.17;;
51987;SDS011;38003;52.012;4.346;2022-07-29T02:38:10;3.00;;;1.33;;
51987;SDS011;38003;52.012;4.346;2022-07-29T02:40:58;4.43;;;1.60;;
51987;SDS011;38003;52.012;4.346;2022-07-29T02:43:30;3.30;;;1.40;;
51987;SDS011;38003;52.012;4.346;2022-07-29T02:46:01;1.50;;;1.30;;
51987;SDS011;38003;52.012;4.346;2022-07-29T02:48:54;4.47;;;1.47;;
51987;SDS011;38003;52.012;4.346;2022-07-29T02:51:27;2.63;;;1.45;;
51987;SDS011;38003;52.012;4.346;2022-07-29T02:54:10;5.63;;;1.60;;
51987;SDS011;38003;52.012;4.346;2022-07-29T02:56:45;3.53;;;1.33;;
51987;SDS011;38003;52.012;4.346;2022-07-29T02:59:15;1.70;;;1.23;;
51987;SDS011;38003;52.012;4.346;2022-07-29T03:01:49;1.77;;;1.15;;
51987;SDS011;38003;52.012;4.346;2022-07-29T03:04:17;2.45;;;1.40;;
51987;SDS011;38003;52.012;4.346;2022-07-29T03:06:47;3.35;;;1.40;;
51987;SDS011;38003;52.012;4.346;2022-07-29T03:09:16;2.85;;;1.30;;
51987;SDS011;38003;52.012;4.346;2022-07-29T03:11:45;3.50;;;1.43;;
51987;SDS011;38003;52.012;4.346;2022-07-29T03:14:16;3.13;;;1.50;;
51987;SDS011;38003;52.012;4.346;2022-07-29T03:16:46;1.53;;;1.30;;
51987;SDS011;38003;52.012;4.346;2022-07-29T03:19:17;3.00;;;1.57;;
51987;SDS011;38003;52.012;4.346;2022-07-29T03:21:46;2.30;;;1.30;;
51987;SDS011;38003;52.012;4.346;2022-07-29T03:24:24;7.37;;;1.40;;
51987;SDS011;38003;52.012;4.346;2022-07-29T03:26:54;2.60;;;1.40;;
51987;SDS011;38003;52.012;4.346;2022-07-29T03:29:23;3.88;;;1.63;;
51987;SDS011;38003;52.012;4.346;2022-07-29T03:32:00;2.13;;;1.25;;
51987;SDS011;38003;52.012;4.346;2022-07-29T03:34:34;2.60;;;1.40;;
51987;SDS011;38003;52.012;4.346;2022-07-29T03:37:02;2.03;;;1.27;;
51987;SDS011;38003;52.012;4.346;2022-07-29T03:39:33;2.03;;;1.70;;
51987;SDS011;38003;52.012;4.346;2022-07-29T03:42:05;2.53;;;1.50;;
51987;SDS011;38003;52.012;4.346;2022-07-29T03:44:36;4.73;;;1.70;;
51987;SDS011;38003;52.012;4.346;2022-07-29T03:47:07;3.13;;;1.47;;
51987;SDS011;38003;52.012;4.346;2022-07-29T03:49:38;2.03;;;1.40;;
51987;SDS011;38003;52.012;4.346;2022-07-29T03:52:07;2.58;;;1.50;;
51987;SDS011;38003;52.012;4.346;2022-07-29T03:54:36;3.58;;;1.73;;
51987;SDS011;38003;52.012;4.346;2022-07-29T03:57:04;2.83;;;1.70;;
51987;SDS011;38003;52.012;4.346;2022-07-29T03:59:34;3.38;;;1.55;;
51987;SDS011;38003;52.012;4.346;2022-07-29T04:02:04;3.55;;;1.63;;
51987;SDS011;38003;52.012;4.346;2022-07-29T04:04:36;6.82;;;1.75;;
51987;SDS011;38003;52.012;4.346;2022-07-29T04:07:04;5.03;;;1.33;;
51987;SDS011;38003;52.012;4.346;2022-07-29T04:09:32;2.33;;;1.70;;
51987;SDS011;38003;52.012;4.346;2022-07-29T04:12:00;2.40;;;1.73;;
51987;SDS011;38003;52.012;4.346;2022-07-29T04:14:30;2.03;;;1.50;;
51987;SDS011;38003;52.012;4.346;2022-07-29T04:16:58;2.30;;;1.55;;
51987;SDS011;38003;52.012;4.346;2022-07-29T04:19:26;5.68;;;1.80;;
51987;SDS011;38003;52.012;4.346;2022-07-29T04:21:56;3.83;;;1.70;;
51987;SDS011;38003;52.012;4.346;2022-07-29T04:24:24;3.20;;;2.00;;
51987;SDS011;38003;52.012;4.346;2022-07-29T04:26:52;3.07;;;1.67;;
51987;SDS011;38003;52.012;4.346;2022-07-29T04:29:20;3.83;;;1.90;;
51987;SDS011;38003;52.012;4.346;2022-07-29T04:31:48;2.43;;;1.67;;
51987;SDS011;38003;52.012;4.346;2022-07-29T04:34:16;2.00;;;1.63;;
51987;SDS011;38003;52.012;4.346;2022-07-29T04:36:45;2.87;;;1.77;;
51987;SDS011;38003;52.012;4.346;2022-07-29T04:39:14;3.83;;;1.80;;
51987;SDS011;38003;52.012;4.346;2022-07-29T04:41:48;3.10;;;1.70;;
51987;SDS011;38003;52.012;4.346;2022-07-29T04:44:20;2.40;;;1.90;;
51987;SDS011;38003;52.012;4.346;2022-07-29T04:46:54;2.10;;;1.60;;
51987;SDS011;38003;52.012;4.346;2022-07-29T04:49:22;2.70;;;1.60;;
51987;SDS011;38003;52.012;4.346;2022-07-29T04:51:50;3.70;;;1.70;;
51987;SDS011;38003;52.012;4.346;2022-07-29T04:54:19;3.60;;;1.70;;
51987;SDS011;38003;52.012;4.346;2022-07-29T04:56:47;3.27;;;2.10;;
51987;SDS011;38003;52.012;4.346;2022-07-29T04:59:15;3.60;;;1.90;;
51987;SDS011;38003;52.012;4.346;2022-07-29T05:01:43;5.80;;;2.00;;
51987;SDS011;38003;52.012;4.346;2022-07-29T05:04:11;2.60;;;2.10;;
51987;SDS011;38003;52.012;4.346;2022-07-29T05:06:39;3.97;;;2.00;;
51987;SDS011;38003;52.012;4.346;2022-07-29T05:09:07;1.70;;;1.50;;
51987;SDS011;38003;52.012;4.346;2022-07-29T05:11:37;2.97;;;1.70;;
51987;SDS011;38003;52.012;4.346;2022-07-29T05:14:04;3.13;;;1.70;;
51987;SDS011;38003;52.012;4.346;2022-07-29T05:16:32;1.73;;;1.63;;
51987;SDS011;38003;52.012;4.346;2022-07-29T05:19:00;2.57;;;1.77;;
51987;SDS011;38003;52.012;4.346;2022-07-29T05:21:28;3.13;;;1.70;;
51987;SDS011;38003;52.012;4.346;2022-07-29T05:23:56;2.90;;;1.77;;
51987;SDS011;38003;52.012;4.346;2022-07-29T05:26:24;2.73;;;1.70;;
51987;SDS011;38003;52.012;4.346;2022-07-29T05:28:53;3.10;;;1.60;;
51987;SDS011;38003;52.012;4.346;2022-07-29T05:31:22;3.97;;;1.80;;
51987;SDS011;38003;52.012;4.346;2022-07-29T05:33:50;2.37;;;1.30;;
51987;SDS011;38003;52.012;4.346;2022-07-29T05:39:41;4.07;;;1.70;;
51987;SDS011;38003;52.012;4.346;2022-07-29T05:42:21;5.07;;;1.50;;
51987;SDS011;38003;52.012;4.346;2022-07-29T05:44:50;2.93;;;1.60;;
51987;SDS011;38003;52.012;4.346;2022-07-29T05:47:18;2.07;;;1.40;;
51987;SDS011;38003;52.012;4.346;2022-07-29T05:49:46;2.97;;;1.40;;
51987;SDS011;38003;52.012;4.346;2022-07-29T05:52:14;3.30;;;1.40;;
51987;SDS011;38003;52.012;4.346;2022-07-29T05:54:42;2.33;;;1.70;;
51987;SDS011;38003;52.012;4.346;2022-07-29T05:57:14;3.93;;;1.70;;
51987;SDS011;38003;52.012;4.346;2022-07-29T05:59:43;4.00;;;1.60;;
51987;SDS011;38003;52.012;4.346;2022-07-29T06:02:12;3.30;;;1.77;;
51987;SDS011;38003;52.012;4.346;2022-07-29T06:04:40;3.75;;;1.77;;
51987;SDS011;38003;52.012;4.346;2022-07-29T06:07:08;1.70;;;1.50;;
51987;SDS011;38003;52.012;4.346;2022-07-29T06:09:37;2.63;;;1.50;;
51987;SDS011;38003;52.012;4.346;2022-07-29T06:12:05;6.68;;;1.70;;
51987;SDS011;38003;52.012;4.346;2022-07-29T06:14:33;3.10;;;1.53;;
51987;SDS011;38003;52.012;4.346;2022-07-29T06:17:02;3.78;;;1.50;;
51987;SDS011;38003;52.012;4.346;2022-07-29T06:19:33;4.50;;;1.63;;
51987;SDS011;38003;52.012;4.346;2022-07-29T06:22:01;4.73;;;2.17;;
51987;SDS011;38003;52.012;4.346;2022-07-29T06:24:29;3.42;;;1.50;;
51987;SDS011;38003;52.012;4.346;2022-07-29T06:26:57;2.27;;;1.40;;
51987;SDS011;38003;52.012;4.346;2022-07-29T06:29:25;4.45;;;1.58;;
51987;SDS011;38003;52.012;4.346;2022-07-29T06:31:53;3.40;;;1.48;;
51987;SDS011;38003;52.012;4.346;2022-07-29T06:34:21;2.97;;;1.77;;
51987;SDS011;38003;52.012;4.346;2022-07-29T06:36:51;4.72;;;1.60;;
51987;SDS011;38003;52.012;4.346;2022-07-29T06:39:20;3.15;;;1.50;;
51987;SDS011;38003;52.012;4.346;2022-07-29T06:41:48;3.63;;;1.50;;
51987;SDS011;38003;52.012;4.346;2022-07-29T06:44:17;2.97;;;1.58;;
51987;SDS011;38003;52.012;4.346;2022-07-29T06:46:45;3.00;;;1.80;;
51987;SDS011;38003;52.012;4.346;2022-07-29T06:49:15;3.20;;;1.73;;
51987;SDS011;38003;52.012;4.346;2022-07-29T06:51:43;4.22;;;1.73;;
51987;SDS011;38003;52.012;4.346;2022-07-29T06:54:12;2.05;;;1.52;;
51987;SDS011;38003;52.012;4.346;2022-07-29T06:56:40;5.40;;;1.77;;
51987;SDS011;38003;52.012;4.346;2022-07-29T06:59:10;4.55;;;2.08;;
51987;SDS011;38003;52.012;4.346;2022-07-29T07:01:39;3.75;;;1.85;;
51987;SDS011;38003;52.012;4.346;2022-07-29T07:04:09;3.60;;;1.80;;
51987;SDS011;38003;52.012;4.346;2022-07-29T07:06:38;3.03;;;1.43;;
51987;SDS011;38003;52.012;4.346;2022-07-29T07:09:06;2.67;;;1.55;;
51987;SDS011;38003;52.012;4.346;2022-07-29T07:11:35;2.05;;;1.73;;
51987;SDS011;38003;52.012;4.346;2022-07-29T07:14:03;2.63;;;1.73;;
51987;SDS011;38003;52.012;4.346;2022-07-29T07:16:31;4.13;;;1.90;;
51987;SDS011;38003;52.012;4.346;2022-07-29T07:18:59;5.68;;;1.80;;
51987;SDS011;38003;52.012;4.346;2022-07-29T07:21:27;4.68;;;1.60;;
51987;SDS011;38003;52.012;4.346;2022-07-29T07:23:56;2.47;;;1.60;;
51987;SDS011;38003;52.012;4.346;2022-07-29T07:26:25;4.82;;;1.80;;
51987;SDS011;38003;52.012;4.346;2022-07-29T07:28:54;2.53;;;1.70;;
51987;SDS011;38003;52.012;4.346;2022-07-29T07:31:22;2.25;;;1.45;;
51987;SDS011;38003;52.012;4.346;2022-07-29T07:33:50;6.00;;;2.00;;
51987;SDS011;38003;52.012;4.346;2022-07-29T07:36:19;2.85;;;1.73;;
51987;SDS011;38003;52.012;4.346;2022-07-29T07:38:47;4.32;;;1.77;;
51987;SDS011;38003;52.012;4.346;2022-07-29T07:41:15;2.25;;;1.88;;
51987;SDS011;38003;52.012;4.346;2022-07-29T07:43:43;3.28;;;1.95;;
51987;SDS011;38003;52.012;4.346;2022-07-29T07:46:12;4.00;;;1.73;;
51987;SDS011;38003;52.012;4.346;2022-07-29T07:48:40;4.72;;;1.83;;
51987;SDS011;38003;52.012;4.346;2022-07-29T07:51:08;3.63;;;1.90;;
51987;SDS011;38003;52.012;4.346;2022-07-29T07:53:36;3.17;;;1.95;;
51987;SDS011;38003;52.012;4.346;2022-07-29T07:56:04;2.83;;;1.80;;
51987;SDS011;38003;52.012;4.346;2022-07-29T07:58:38;5.72;;;2.00;;
51987;SDS011;38003;52.012;4.346;2022-07-29T08:01:06;3.67;;;2.00;;
51987;SDS011;38003;52.012;4.346;2022-07-29T08:03:35;4.80;;;1.98;;
51987;SDS011;38003;52.012;4.346;2022-07-29T08:06:04;2.03;;;1.70;;
51987;SDS011;38003;52.012;4.346;2022-07-29T08:08:32;4.40;;;2.05;;
51987;SDS011;38003;52.012;4.346;2022-07-29T08:11:00;2.75;;;2.08;;
51987;SDS011;38003;52.012;4.346;2022-07-29T08:13:34;2.88;;;1.85;;
51987;SDS011;38003;52.012;4.346;2022-07-29T08:16:04;3.22;;;2.10;;
51987;SDS011;38003;52.012;4.346;2022-07-29T08:18:40;3.92;;;2.13;;
51987;SDS011;38003;52.012;4.346;2022-07-29T08:21:09;3.88;;;1.90;;
51987;SDS011;38003;52.012;4.346;2022-07-29T08:23:40;6.40;;;2.20;;
51987;SDS011;38003;52.012;4.346;2022-07-29T08:26:24;2.15;;;1.70;;
51987;SDS011;38003;52.012;4.346;2022-07-29T08:28:52;4.10;;;1.80;;
51987;SDS011;38003;52.012;4.346;2022-07-29T08:31:20;5.45;;;1.95;;
51987;SDS011;38003;52.012;4.346;2022-07-29T08:33:49;4.13;;;1.85;;
51987;SDS011;38003;52.012;4.346;2022-07-29T08:36:17;2.92;;;1.75;;
51987;SDS011;38003;52.012;4.346;2022-07-29T08:38:47;4.93;;;1.92;;
51987;SDS011;38003;52.012;4.346;2022-07-29T08:41:15;4.07;;;2.10;;
51987;SDS011;38003;52.012;4.346;2022-07-29T08:43:45;6.85;;;2.08;;
51987;SDS011;38003;52.012;4.346;2022-07-29T08:46:13;5.45;;;2.28;;
51987;SDS011;38003;52.012;4.346;2022-07-29T08:48:41;3.33;;;1.55;;
51987;SDS011;38003;52.012;4.346;2022-07-29T08:51:12;1.98;;;1.77;;
51987;SDS011;38003;52.012;4.346;2022-07-29T08:53:41;2.08;;;1.52;;
51987;SDS011;38003;52.012;4.346;2022-07-29T08:56:11;2.10;;;1.90;;
51987;SDS011;38003;52.012;4.346;2022-07-29T08:58:40;5.65;;;2.47;;
51987;SDS011;38003;52.012;4.346;2022-07-29T09:01:14;3.00;;;2.00;;
51987;SDS011;38003;52.012;4.346;2022-07-29T09:03:45;6.32;;;2.30;;
51987;SDS011;38003;52.012;4.346;2022-07-29T09:06:16;3.65;;;1.90;;
51987;SDS011;38003;52.012;4.346;2022-07-29T09:08:45;3.45;;;1.92;;
51987;SDS011;38003;52.012;4.346;2022-07-29T09:11:13;3.30;;;2.10;;
51987;SDS011;38003;52.012;4.346;2022-07-29T09:13:41;3.13;;;1.92;;
51987;SDS011;38003;52.012;4.346;2022-07-29T09:16:09;2.80;;;1.80;;
51987;SDS011;38003;52.012;4.346;2022-07-29T09:18:38;4.38;;;2.00;;
51987;SDS011;38003;52.012;4.346;2022-07-29T09:21:10;4.63;;;2.30;;
51987;SDS011;38003;52.012;4.346;2022-07-29T09:24:01;3.65;;;1.98;;
51987;SDS011;38003;52.012;4.346;2022-07-29T09:26:30;3.15;;;2.10;;
51987;SDS011;38003;52.012;4.346;2022-07-29T09:28:59;2.70;;;2.13;;
51987;SDS011;38003;52.012;4.346;2022-07-29T09:31:36;4.00;;;2.20;;
51987;SDS011;38003;52.012;4.346;2022-07-29T09:34:05;4.82;;;2.53;;
51987;SDS011;38003;52.012;4.346;2022-07-29T09:36:40;5.03;;;2.35;;
51987;SDS011;38003;52.012;4.346;2022-07-29T09:39:11;6.43;;;2.20;;
51987;SDS011;38003;52.012;4.346;2022-07-29T09:41:46;5.32;;;2.28;;
51987;SDS011;38003;52.012;4.346;2022-07-29T09:44:16;4.50;;;2.20;;
51987;SDS011;38003;52.012;4.346;2022-07-29T09:46:54;7.75;;;2.45;;
51987;SDS011;38003;52.012;4.346;2022-07-29T09:49:24;4.05;;;2.03;;
51987;SDS011;38003;52.012;4.346;2022-07-29T09:52:00;3.78;;;2.17;;
51987;SDS011;38003;52.012;4.346;2022-07-29T09:54:32;4.78;;;2.00;;
51987;SDS011;38003;52.012;4.346;2022-07-29T09:57:04;5.28;;;2.20;;
51987;SDS011;38003;52.012;4.346;2022-07-29T09:59:33;3.05;;;2.17;;
51987;SDS011;38003;52.012;4.346;2022-07-29T10:02:01;5.47;;;2.30;;
51987;SDS011;38003;52.012;4.346;2022-07-29T10:04:38;3.83;;;2.45;;
51987;SDS011;38003;52.012;4.346;2022-07-29T10:07:07;4.53;;;1.92;;
51987;SDS011;38003;52.012;4.346;2022-07-29T10:09:37;6.75;;;2.63;;
51987;SDS011;38003;52.012;4.346;2022-07-29T10:12:06;4.10;;;1.90;;
51987;SDS011;38003;52.012;4.346;2022-07-29T10:14:37;2.95;;;1.95;;
51987;SDS011;38003;52.012;4.346;2022-07-29T10:17:06;4.70;;;2.00;;
51987;SDS011;38003;52.012;4.346;2022-07-29T10:19:35;4.35;;;1.98;;
51987;SDS011;38003;52.012;4.346;2022-07-29T10:22:05;4.32;;;2.60;;
51987;SDS011;38003;52.012;4.346;2022-07-29T10:24:35;4.35;;;2.20;;
51987;SDS011;38003;52.012;4.346;2022-07-29T10:27:06;7.20;;;2.20;;
51987;SDS011;38003;52.012;4.346;2022-07-29T10:29:35;3.58;;;1.70;;
51987;SDS011;38003;52.012;4.346;2022-07-29T10:35:12;3.05;;;2.28;;
51987;SDS011;38003;52.012;4.346;2022-07-29T10:37:52;4.70;;;1.85;;
51987;SDS011;38003;52.012;4.346;2022-07-29T10:40:44;3.80;;;1.90;;
51987;SDS011;38003;52.012;4.346;2022-07-29T10:43:36;4.32;;;1.88;;
51987;SDS011;38003;52.012;4.346;2022-07-29T10:46:12;2.88;;;1.83;;
51987;SDS011;38003;52.012;4.346;2022-07-29T10:51:59;6.55;;;1.77;;
51987;SDS011;38003;52.012;4.346;2022-07-29T10:54:41;2.63;;;1.70;;
51987;SDS011;38003;52.012;4.346;2022-07-29T10:57:20;3.05;;;1.58;;
51987;SDS011;38003;52.012;4.346;2022-07-29T11:00:30;3.53;;;1.52;;
51987;SDS011;38003;52.012;4.346;2022-07-29T11:03:00;3.83;;;1.52;;
51987;SDS011;38003;52.012;4.346;2022-07-29T11:08:21;4.38;;;1.50;;
51987;SDS011;38003;52.012;4.346;2022-07-29T11:14:18;3.40;;;1.77;;
51987;SDS011;38003;52.012;4.346;2022-07-29T11:16:58;4.30;;;1.55;;
51987;SDS011;38003;52.012;4.346;2022-07-29T11:19:32;6.35;;;1.58;;
51987;SDS011;38003;52.012;4.346;2022-07-29T11:22:01;4.47;;;1.77;;
51987;SDS011;38003;52.012;4.346;2022-07-29T11:24:31;4.47;;;1.70;;
51987;SDS011;38003;52.012;4.346;2022-07-29T11:27:10;6.63;;;2.10;;
51987;SDS011;38003;52.012;4.346;2022-07-29T11:30:02;2.67;;;1.63;;
51987;SDS011;38003;52.012;4.346;2022-07-29T11:32:35;3.50;;;1.48;;
51987;SDS011;38003;52.012;4.346;2022-07-29T11:35:11;2.85;;;1.30;;
51987;SDS011;38003;52.012;4.346;2022-07-29T11:43:49;5.93;;;1.48;;
51987;SDS011;38003;52.012;4.346;2022-07-29T11:49:18;4.97;;;1.55;;
51987;SDS011;38003;52.012;4.346;2022-07-29T11:51:58;4.20;;;1.40;;
51987;SDS011;38003;52.012;4.346;2022-07-29T11:54:30;3.28;;;1.30;;
51987;SDS011;38003;52.012;4.346;2022-07-29T11:57:19;4.35;;;1.70;;
51987;SDS011;38003;52.012;4.346;2022-07-29T12:00:02;4.03;;;1.65;;
51987;SDS011;38003;52.012;4.346;2022-07-29T12:02:52;3.30;;;1.50;;
51987;SDS011;38003;52.012;4.346;2022-07-29T12:05:34;2.70;;;1.13;;
51987;SDS011;38003;52.012;4.346;2022-07-29T12:08:14;2.90;;;1.60;;
51987;SDS011;38003;52.012;4.346;2022-07-29T12:10:45;2.47;;;1.45;;
51987;SDS011;38003;52.012;4.346;2022-07-29T12:13:15;3.95;;;1.38;;
51987;SDS011;38003;52.012;4.346;2022-07-29T12:15:51;6.97;;;1.58;;
51987;SDS011;38003;52.012;4.346;2022-07-29T12:18:21;2.17;;;1.33;;
51987;SDS011;38003;52.012;4.346;2022-07-29T12:20:56;2.92;;;1.35;;
51987;SDS011;38003;52.012;4.346;2022-07-29T12:23:28;4.63;;;1.83;;
51987;SDS011;38003;52.012;4.346;2022-07-29T12:26:00;3.72;;;1.30;;
51987;SDS011;38003;52.012;4.346;2022-07-29T12:28:36;3.58;;;1.10;;
51987;SDS011;38003;52.012;4.346;2022-07-29T12:31:04;2.85;;;1.10;;
51987;SDS011;38003;52.012;4.346;2022-07-29T12:33:35;3.92;;;1.30;;
51987;SDS011;38003;52.012;4.346;2022-07-29T12:36:03;2.33;;;1.33;;
51987;SDS011;38003;52.012;4.346;2022-07-29T12:38:33;2.75;;;1.30;;
51987;SDS011;38003;52.012;4.346;2022-07-29T12:41:02;5.75;;;1.75;;
51987;SDS011;38003;52.012;4.346;2022-07-29T12:43:30;5.05;;;1.30;;
51987;SDS011;38003;52.012;4.346;2022-07-29T12:46:00;2.85;;;1.20;;
51987;SDS011;38003;52.012;4.346;2022-07-29T12:48:41;2.03;;;1.25;;
51987;SDS011;38003;52.012;4.346;2022-07-29T12:51:10;2.67;;;1.30;;
51987;SDS011;38003;52.012;4.346;2022-07-29T12:53:40;4.10;;;1.50;;
51987;SDS011;38003;52.012;4.346;2022-07-29T12:56:14;3.40;;;1.60;;
51987;SDS011;38003;52.012;4.346;2022-07-29T12:59:10;4.15;;;1.58;;
51987;SDS011;38003;52.012;4.346;2022-07-29T13:01:39;3.55;;;1.65;;
51987;SDS011;38003;52.012;4.346;2022-07-29T13:04:08;5.97;;;1.60;;
51987;SDS011;38003;52.012;4.346;2022-07-29T13:06:38;5.07;;;1.33;;
51987;SDS011;38003;52.012;4.346;2022-07-29T13:09:11;3.20;;;1.60;;
51987;SDS011;38003;52.012;4.346;2022-07-29T13:11:41;3.58;;;1.30;;
51987;SDS011;38003;52.012;4.346;2022-07-29T13:14:30;4.20;;;1.40;;
51987;SDS011;38003;52.012;4.346;2022-07-29T13:17:03;3.47;;;1.50;;
51987;SDS011;38003;52.012;4.346;2022-07-29T13:19:35;3.70;;;1.15;;
51987;SDS011;38003;52.012;4.346;2022-07-29T13:22:06;2.60;;;1.20;;
51987;SDS011;38003;52.012;4.346;2022-07-29T13:24:44;2.13;;;1.10;;
51987;SDS011;38003;52.012;4.346;2022-07-29T13:27:13;3.88;;;1.60;;
51987;SDS011;38003;52.012;4.346;2022-07-29T13:29:42;4.22;;;1.27;;
51987;SDS011;38003;52.012;4.346;2022-07-29T13:32:10;3.85;;;1.60;;
51987;SDS011;38003;52.012;4.346;2022-07-29T13:34:40;2.90;;;1.40;;
51987;SDS011;38003;52.012;4.346;2022-07-29T13:37:08;4.63;;;1.40;;
51987;SDS011;38003;52.012;4.346;2022-07-29T13:39:36;2.97;;;1.23;;
51987;SDS011;38003;52.012;4.346;2022-07-29T13:42:04;6.18;;;1.50;;
51987;SDS011;38003;52.012;4.346;2022-07-29T13:44:36;2.63;;;1.17;;
51987;SDS011;38003;52.012;4.346;2022-07-29T13:47:04;2.30;;;1.13;;
51987;SDS011;38003;52.012;4.346;2022-07-29T13:49:32;2.00;;;1.20;;
51987;SDS011;38003;52.012;4.346;2022-07-29T13:52:02;4.20;;;1.30;;
51987;SDS011;38003;52.012;4.346;2022-07-29T13:54:33;4.05;;;1.10;;
51987;SDS011;38003;52.012;4.346;2022-07-29T13:57:07;4.57;;;1.20;;
51987;SDS011;38003;52.012;4.346;2022-07-29T13:59:36;2.90;;;1.50;;
51987;SDS011;38003;52.012;4.346;2022-07-29T14:02:05;3.05;;;1.23;;
51987;SDS011;38003;52.012;4.346;2022-07-29T14:04:33;3.63;;;1.63;;
51987;SDS011;38003;52.012;4.346;2022-07-29T14:07:06;3.95;;;1.65;;
51987;SDS011;38003;52.012;4.346;2022-07-29T14:09:35;3.42;;;1.30;;
51987;SDS011;38003;52.012;4.346;2022-07-29T14:12:07;3.95;;;1.42;;
51987;SDS011;38003;52.012;4.346;2022-07-29T14:14:35;3.75;;;1.70;;
51987;SDS011;38003;52.012;4.346;2022-07-29T14:17:03;3.45;;;1.55;;
51987;SDS011;38003;52.012;4.346;2022-07-29T14:19:32;3.00;;;1.55;;
51987;SDS011;38003;52.012;4.346;2022-07-29T14:22:05;4.03;;;1.40;;
51987;SDS011;38003;52.012;4.346;2022-07-29T14:24:35;4.72;;;2.10;;
51987;SDS011;38003;52.012;4.346;2022-07-29T14:27:04;4.85;;;1.60;;
51987;SDS011;38003;52.012;4.346;2022-07-29T14:29:32;1.80;;;1.30;;
51987;SDS011;38003;52.012;4.346;2022-07-29T14:32:04;4.45;;;1.60;;
51987;SDS011;38003;52.012;4.346;2022-07-29T14:34:32;4.35;;;1.30;;
51987;SDS011;38003;52.012;4.346;2022-07-29T14:37:00;3.13;;;1.40;;
51987;SDS011;38003;52.012;4.346;2022-07-29T14:39:30;3.42;;;1.50;;
51987;SDS011;38003;52.012;4.346;2022-07-29T14:41:58;4.32;;;1.50;;
51987;SDS011;38003;52.012;4.346;2022-07-29T14:44:27;5.50;;;1.33;;
51987;SDS011;38003;52.012;4.346;2022-07-29T14:46:57;3.33;;;1.40;;
51987;SDS011;38003;52.012;4.346;2022-07-29T14:49:26;4.13;;;1.50;;
51987;SDS011;38003;52.012;4.346;2022-07-29T14:51:53;2.85;;;1.25;;
51987;SDS011;38003;52.012;4.346;2022-07-29T14:54:22;3.90;;;1.50;;
51987;SDS011;38003;52.012;4.346;2022-07-29T14:56:51;4.28;;;1.50;;
51987;SDS011;38003;52.012;4.346;2022-07-29T14:59:22;4.45;;;1.63;;
51987;SDS011;38003;52.012;4.346;2022-07-29T15:01:50;5.80;;;1.70;;
51987;SDS011;38003;52.012;4.346;2022-07-29T15:04:18;4.72;;;1.60;;
51987;SDS011;38003;52.012;4.346;2022-07-29T15:06:47;2.90;;;1.35;;
51987;SDS011;38003;52.012;4.346;2022-07-29T15:09:15;3.22;;;1.27;;
51987;SDS011;38003;52.012;4.346;2022-07-29T15:11:43;5.15;;;1.23;;
51987;SDS011;38003;52.012;4.346;2022-07-29T15:14:12;3.85;;;1.20;;
51987;SDS011;38003;52.012;4.346;2022-07-29T15:16:40;3.17;;;1.35;;
51987;SDS011;38003;52.012;4.346;2022-07-29T15:19:13;3.83;;;1.40;;
51987;SDS011;38003;52.012;4.346;2022-07-29T15:21:41;3.67;;;1.42;;
51987;SDS011;38003;52.012;4.346;2022-07-29T15:24:14;5.68;;;1.60;;
51987;SDS011;38003;52.012;4.346;2022-07-29T15:26:42;4.28;;;1.60;;
51987;SDS011;38003;52.012;4.346;2022-07-29T15:29:10;3.38;;;1.40;;
51987;SDS011;38003;52.012;4.346;2022-07-29T15:31:40;3.30;;;1.33;;
51987;SDS011;38003;52.012;4.346;2022-07-29T15:34:08;5.57;;;1.40;;
51987;SDS011;38003;52.012;4.346;2022-07-29T15:36:36;2.63;;;1.30;;